createdAt,value
2023-04-01T00:00:36.930Z,4.05
2023-04-01T00:03:17.670Z,2.90
2023-04-01T00:05:55.305Z,6.80
2023-04-01T00:08:30.393Z,5.90
2023-04-01T00:11:08.412Z,7.15
2023-04-01T00:13:46.190Z,3.40
2023-04-01T00:16:22.867Z,5.63
2023-04-01T00:19:01.176Z,4.63
2023-04-01T00:21:37.089Z,5.65
2023-04-01T00:24:13.235Z,9.80
2023-04-01T00:29:25.440Z,10.50
2023-04-01T00:32:01.284Z,7.10
2023-04-01T00:37:17.833Z,8.20
2023-04-01T00:39:54.848Z,9.20
2023-04-01T00:42:31.852Z,10.87
2023-04-01T00:45:23.857Z,12.50
2023-04-01T00:47:58.278Z,9.00
2023-04-01T00:50:36.454Z,8.45
2023-04-01T00:53:13.564Z,11.15
2023-04-01T00:55:51.380Z,11.95
2023-04-01T00:58:26.777Z,13.45
2023-04-01T01:01:04.016Z,11.17
2023-04-01T01:03:39.803Z,10.30
2023-04-01T01:06:28.381Z,9.05
2023-04-01T01:09:10.708Z,12.13
2023-04-01T01:11:44.183Z,13.00
2023-04-01T01:14:33.128Z,12.48
2023-04-01T01:17:12.933Z,13.07
2023-04-01T01:20:24.860Z,10.95
2023-04-01T01:23:24.200Z,11.77
2023-04-01T01:26:03.425Z,14.27
2023-04-01T01:28:42.597Z,14.70
2023-04-01T01:31:23.509Z,11.80
2023-04-01T01:34:07.862Z,11.32
2023-04-01T01:36:46.545Z,17.38
2023-04-01T01:39:22.546Z,12.50
2023-04-01T01:42:00.022Z,14.55
2023-04-01T01:44:35.515Z,13.60
2023-04-01T01:47:17.152Z,15.73
2023-04-01T01:49:55.746Z,14.25
2023-04-01T01:52:36.386Z,16.35
2023-04-01T01:55:30.959Z,13.63
2023-04-01T01:58:09.514Z,14.57
2023-04-01T02:00:53.483Z,21.52
2023-04-01T02:03:29.386Z,18.27
2023-04-01T02:06:07.683Z,11.25
2023-04-01T02:08:48.809Z,15.50
2023-04-01T02:11:24.174Z,13.80
2023-04-01T02:14:00.614Z,11.80
2023-04-01T02:16:39.592Z,16.73
2023-04-01T02:19:16.560Z,13.35
2023-04-01T02:21:57.740Z,14.95
2023-04-01T02:24:36.145Z,14.93
2023-04-01T02:27:14.102Z,13.33
2023-04-01T02:29:53.202Z,10.63
2023-04-01T02:32:30.924Z,17.52
2023-04-01T02:35:07.237Z,11.85
2023-04-01T02:37:43.735Z,14.55
2023-04-01T02:40:24.606Z,15.85
2023-04-01T02:43:00.550Z,12.95
2023-04-01T02:45:37.141Z,15.75
2023-04-01T02:48:13.015Z,14.10
2023-04-01T02:50:48.354Z,11.33
2023-04-01T02:53:25.372Z,13.77
2023-04-01T02:56:06.017Z,13.40
2023-04-01T02:58:43.001Z,11.88
2023-04-01T03:01:18.859Z,9.20
2023-04-01T03:03:54.101Z,8.43
2023-04-01T03:06:32.241Z,6.30
2023-04-01T03:09:06.886Z,10.93
2023-04-01T03:11:45.434Z,9.52
2023-04-01T03:14:22.730Z,7.78
2023-04-01T03:17:02.884Z,8.27
2023-04-01T03:19:38.303Z,9.05
2023-04-01T03:22:16.900Z,6.30
2023-04-01T03:24:51.673Z,10.50
2023-04-01T03:27:34.010Z,8.00
2023-04-01T03:30:11.227Z,5.50
2023-04-01T03:32:57.353Z,5.80
2023-04-01T03:35:32.722Z,7.47
2023-04-01T03:38:09.214Z,7.77
2023-04-01T03:40:47.555Z,8.05
2023-04-01T03:43:28.806Z,4.90
2023-04-01T03:46:07.556Z,9.98
2023-04-01T03:48:43.510Z,7.68
2023-04-01T03:51:18.923Z,8.43
2023-04-01T03:53:54.429Z,5.07
2023-04-01T03:56:30.372Z,5.50
2023-04-01T03:59:10.174Z,6.83
2023-04-01T04:01:45.425Z,13.85
2023-04-01T04:04:20.269Z,8.10
2023-04-01T04:06:56.271Z,12.93
2023-04-01T04:09:34.929Z,10.70
2023-04-01T04:12:12.929Z,9.07
2023-04-01T04:14:57.670Z,10.30
2023-04-01T04:17:33.158Z,11.48
2023-04-01T04:20:12.703Z,12.15
2023-04-01T04:22:51.328Z,9.10
2023-04-01T04:25:29.778Z,8.10
2023-04-01T04:28:07.663Z,11.25
2023-04-01T04:30:49.425Z,9.13
2023-04-01T04:33:24.364Z,9.85
2023-04-01T04:36:05.521Z,7.15
2023-04-01T04:38:41.669Z,9.60
2023-04-01T04:41:19.151Z,7.82
2023-04-01T04:43:59.863Z,7.65
2023-04-01T04:46:38.902Z,6.70
2023-04-01T04:49:22.482Z,6.45
2023-04-01T04:51:58.357Z,7.45
2023-04-01T04:54:35.889Z,7.55
2023-04-01T04:57:13.221Z,4.65
2023-04-01T04:59:59.609Z,6.38
2023-04-01T05:03:04.423Z,6.90
2023-04-01T05:05:41.059Z,8.30
2023-04-01T05:08:16.501Z,4.55
2023-04-01T05:10:55.327Z,5.22
2023-04-01T05:13:31.764Z,5.60
2023-04-01T05:16:12.033Z,7.28
2023-04-01T05:18:50.847Z,7.45
2023-04-01T05:21:26.788Z,5.28
2023-04-01T05:24:03.508Z,5.40
2023-04-01T05:26:41.177Z,6.93
2023-04-01T05:29:16.832Z,7.38
2023-04-01T05:31:57.418Z,8.40
2023-04-01T05:34:37.449Z,6.15
2023-04-01T05:37:15.613Z,8.18
2023-04-01T05:39:51.019Z,7.60
2023-04-01T05:42:28.514Z,5.90
2023-04-01T05:45:04.456Z,8.63
2023-04-01T05:47:58.590Z,10.50
2023-04-01T05:50:41.100Z,7.40
2023-04-01T05:53:17.425Z,5.35
2023-04-01T05:55:54.512Z,8.48
2023-04-01T05:58:30.349Z,13.73
2023-04-01T06:01:11.651Z,7.43
2023-04-01T06:03:51.021Z,13.73
2023-04-01T06:09:19.178Z,10.07
2023-04-01T06:12:09.655Z,7.38
2023-04-01T06:14:56.653Z,8.38
2023-04-01T06:17:34.470Z,9.13
2023-04-01T06:20:12.347Z,11.88
2023-04-01T06:22:57.923Z,10.50
2023-04-01T06:25:48.399Z,10.60
2023-04-01T06:28:45.293Z,13.05
2023-04-01T06:31:29.484Z,13.30
2023-04-01T06:36:58.657Z,9.50
2023-04-01T06:40:18.201Z,9.00
2023-04-01T06:42:56.403Z,11.00
2023-04-01T06:45:56.714Z,12.32
2023-04-01T06:49:02.509Z,11.32
2023-04-01T06:51:59.745Z,9.90
2023-04-01T06:54:57.626Z,9.68
2023-04-01T06:57:51.772Z,11.37
2023-04-01T07:03:19.501Z,12.85
2023-04-01T07:05:56.201Z,8.68
2023-04-01T07:08:36.674Z,9.73
2023-04-01T07:11:14.727Z,7.78
2023-04-01T07:14:11.985Z,10.65
2023-04-01T07:16:49.430Z,7.78
2023-04-01T07:19:30.732Z,6.55
2023-04-01T07:22:22.678Z,10.10
2023-04-01T07:25:20.206Z,7.05
2023-04-01T07:28:08.212Z,5.43
2023-04-01T07:30:55.306Z,5.57
2023-04-01T07:33:34.973Z,6.53
2023-04-01T07:36:23.853Z,5.95
2023-04-01T07:39:04.152Z,7.40
2023-04-01T07:42:02.336Z,7.05
2023-04-01T07:44:42.599Z,6.97
2023-04-01T07:47:28.044Z,8.13
2023-04-01T07:50:11.090Z,7.18
2023-04-01T07:52:52.502Z,4.95
2023-04-01T07:55:33.665Z,8.35
2023-04-01T07:58:11.394Z,7.20
2023-04-01T08:00:53.652Z,8.45
2023-04-01T08:03:46.494Z,7.80
2023-04-01T08:06:23.286Z,6.85
2023-04-01T08:09:06.959Z,6.10
2023-04-01T08:11:59.273Z,7.03
2023-04-01T08:15:06.783Z,8.00
2023-04-01T08:17:58.845Z,8.73
2023-04-01T08:20:33.728Z,6.40
2023-04-01T08:23:11.452Z,7.60
2023-04-01T08:25:55.807Z,7.77
2023-04-01T08:28:36.959Z,7.30
2023-04-01T08:31:19.004Z,8.98
2023-04-01T08:33:57.665Z,7.85
2023-04-01T08:36:36.771Z,7.20
2023-04-01T08:39:26.883Z,7.13
2023-04-01T08:42:26.440Z,7.70
2023-04-01T08:45:26.395Z,8.85
2023-04-01T08:48:09.914Z,9.30
2023-04-01T08:51:05.226Z,6.10
2023-04-01T08:53:43.616Z,7.35
2023-04-01T08:56:23.661Z,8.02
2023-04-01T08:59:21.615Z,7.50
2023-04-01T09:02:32.203Z,7.22
2023-04-01T09:05:26.717Z,4.93
2023-04-01T09:08:02.560Z,6.25
2023-04-01T09:11:00.661Z,10.50
2023-04-01T09:14:36.308Z,5.25
2023-04-01T09:17:23.034Z,6.30
2023-04-01T09:20:21.034Z,4.00
2023-04-01T09:23:06.815Z,7.68
2023-04-01T09:25:51.025Z,6.93
2023-04-01T09:28:32.707Z,5.75
2023-04-01T09:31:19.557Z,6.23
2023-04-01T09:34:56.787Z,8.40
2023-04-01T09:37:44.518Z,10.03
2023-04-01T09:40:29.715Z,5.40
2023-04-01T09:43:27.805Z,6.82
2023-04-01T09:46:28.090Z,6.72
2023-04-01T09:49:36.317Z,10.73
2023-04-01T09:52:38.417Z,6.63
2023-04-01T09:55:47.345Z,10.52
2023-04-01T09:58:43.802Z,13.85
2023-04-01T10:02:13.463Z,3.65
2023-04-01T10:05:15.354Z,6.95
2023-04-01T10:07:46.869Z,3.78
2023-04-01T10:10:48.814Z,5.32
2023-04-01T10:14:09.224Z,4.45
2023-04-01T10:17:15.009Z,1.63
2023-04-01T10:20:12.556Z,1.65
2023-04-01T10:22:47.360Z,1.45
2023-04-01T10:25:39.606Z,3.35
2023-04-01T10:28:54.464Z,2.75
2023-04-01T10:31:53.188Z,3.78
2023-04-01T10:34:50.713Z,2.10
2023-04-01T10:37:34.091Z,2.70
2023-04-01T10:40:36.536Z,1.55
2023-04-01T10:43:59.884Z,1.63
2023-04-01T10:46:57.329Z,2.47
2023-04-01T10:49:52.715Z,2.03
2023-04-01T10:52:27.531Z,2.75
2023-04-01T10:55:50.887Z,2.25
2023-04-01T10:59:05.004Z,5.40
2023-04-01T11:02:37.901Z,1.90
2023-04-01T11:05:40.792Z,3.13
2023-04-01T11:08:56.010Z,3.75
2023-04-01T11:12:00.808Z,3.65
2023-04-01T11:15:02.904Z,3.08
2023-04-01T11:18:14.133Z,3.72
2023-04-01T11:21:13.799Z,4.97
2023-04-01T11:23:58.312Z,5.28
2023-04-01T11:26:49.266Z,4.27
2023-04-01T11:30:00.470Z,2.95
2023-04-01T11:32:50.397Z,4.00
2023-04-01T11:35:47.601Z,4.25
2023-04-01T11:38:19.633Z,4.07
2023-04-01T11:41:06.269Z,3.25
2023-04-01T11:44:22.860Z,4.55
2023-04-01T11:47:34.452Z,2.38
2023-04-01T11:50:20.811Z,1.73
2023-04-01T11:53:18.814Z,2.65
2023-04-01T11:56:04.955Z,3.15
2023-04-01T11:58:59.336Z,2.28
2023-04-01T12:01:53.136Z,1.85
2023-04-01T12:05:05.766Z,2.57
2023-04-01T12:07:55.017Z,2.67
2023-04-01T12:10:34.942Z,1.80
2023-04-01T12:13:19.023Z,1.17
2023-04-01T12:15:58.721Z,1.95
2023-04-01T12:18:32.412Z,0.75
2023-04-01T12:21:14.285Z,1.35
2023-04-01T12:24:14.201Z,1.17
2023-04-01T12:27:24.130Z,1.15
2023-04-01T12:30:21.244Z,0.90
2023-04-01T12:33:01.752Z,1.20
2023-04-01T12:35:42.054Z,0.85
2023-04-01T12:38:22.816Z,1.40
2023-04-01T12:41:05.142Z,1.10
2023-04-01T12:44:14.221Z,0.90
2023-04-01T12:47:26.473Z,0.70
2023-04-01T12:50:16.005Z,1.20
2023-04-01T12:52:57.131Z,0.90
2023-04-01T12:55:28.640Z,1.13
2023-04-01T12:58:25.544Z,1.55
2023-04-01T13:04:03.493Z,1.50
2023-04-01T13:09:19.550Z,2.10
2023-04-01T13:12:03.467Z,2.28
2023-04-01T13:15:11.277Z,1.40
2023-04-01T13:17:48.690Z,1.55
2023-04-01T13:20:34.336Z,4.07
2023-04-01T13:23:18.466Z,3.42
2023-04-01T13:26:13.065Z,3.40
2023-04-01T13:28:51.393Z,9.10
2023-04-01T13:31:36.847Z,3.08
2023-04-01T13:34:19.765Z,3.60
2023-04-01T13:37:03.708Z,2.67
2023-04-01T13:39:46.298Z,3.72
2023-04-01T13:42:20.341Z,2.75
2023-04-01T13:44:58.248Z,2.15
2023-04-01T13:47:57.794Z,3.40
2023-04-01T13:50:55.968Z,1.67
2023-04-01T13:54:03.297Z,1.90
2023-04-01T14:00:07.214Z,1.80
2023-04-01T14:03:19.306Z,2.05
2023-04-01T14:05:59.243Z,1.38
2023-04-01T14:09:16.348Z,1.60
2023-04-01T14:11:57.092Z,4.23
2023-04-01T14:14:40.035Z,4.05
2023-04-01T14:17:32.726Z,1.73
2023-04-01T14:20:44.981Z,2.40
2023-04-01T14:23:39.847Z,1.98
2023-04-01T14:26:34.630Z,2.23
2023-04-01T14:29:21.305Z,1.98
2023-04-01T14:32:03.965Z,1.83
2023-04-01T14:34:45.460Z,3.38
2023-04-01T14:37:37.354Z,2.63
2023-04-01T14:40:27.586Z,3.05
2023-04-01T14:43:37.025Z,3.53
2023-04-01T14:46:12.367Z,7.60
2023-04-01T14:48:59.021Z,6.50
2023-04-01T14:51:39.175Z,8.68
2023-04-01T14:54:24.467Z,8.02
2023-04-01T14:57:09.862Z,8.37
2023-04-01T14:59:52.373Z,12.95
2023-04-01T15:02:51.257Z,15.40
2023-04-01T15:05:37.230Z,29.35
2023-04-01T15:08:19.283Z,17.80
2023-04-01T15:11:27.684Z,10.57
2023-04-01T15:14:26.192Z,6.85
2023-04-01T15:17:11.056Z,6.47
2023-04-01T15:19:53.532Z,7.60
2023-04-01T15:22:42.327Z,5.95
2023-04-01T15:25:29.490Z,8.73
2023-04-01T15:28:07.999Z,9.65
2023-04-01T15:30:52.332Z,11.20
2023-04-01T15:33:41.279Z,9.73
2023-04-01T15:36:23.563Z,14.52
2023-04-01T15:39:04.994Z,10.93
2023-04-01T15:41:44.655Z,11.05
2023-04-01T15:44:39.956Z,12.00
2023-04-01T15:47:31.896Z,11.18
2023-04-01T15:50:32.865Z,13.60
2023-04-01T15:53:12.384Z,13.93
2023-04-01T15:55:52.233Z,17.47
2023-04-01T15:58:37.297Z,15.90
2023-04-01T16:01:19.350Z,14.88
2023-04-01T16:03:57.150Z,18.70
2023-04-01T16:06:55.887Z,20.40
2023-04-01T16:09:44.345Z,24.57
2023-04-01T16:12:24.735Z,32.55
2023-04-01T16:15:06.491Z,30.58
2023-04-01T16:18:23.777Z,22.83
2023-04-01T16:21:00.531Z,20.20
2023-04-01T16:23:41.687Z,16.50
2023-04-01T16:26:21.625Z,19.95
2023-04-01T16:29:05.058Z,20.60
2023-04-01T16:31:42.708Z,20.55
2023-04-01T16:34:21.026Z,18.80
2023-04-01T16:36:59.388Z,17.97
2023-04-01T16:39:33.681Z,19.15
2023-04-01T16:42:44.108Z,18.92
2023-04-01T16:45:18.670Z,18.35
2023-04-01T16:47:58.989Z,23.05
2023-04-01T16:50:44.230Z,16.30
2023-04-01T16:53:22.354Z,21.10
2023-04-01T16:56:02.667Z,20.05
2023-04-01T16:58:39.915Z,25.35
2023-04-01T17:01:19.965Z,30.90
2023-04-01T17:04:03.042Z,31.67
2023-04-01T17:06:42.348Z,37.45
2023-04-01T17:09:25.304Z,38.30
2023-04-01T17:12:04.043Z,35.20
2023-04-01T17:14:44.008Z,38.97
2023-04-01T17:17:40.621Z,29.55
2023-04-01T17:20:39.138Z,25.63
2023-04-01T17:23:18.959Z,26.98
2023-04-01T17:26:01.912Z,24.50
2023-04-01T17:28:37.915Z,21.50
2023-04-01T17:31:16.476Z,22.23
2023-04-01T17:33:58.259Z,25.02
2023-04-01T17:37:00.588Z,29.73
2023-04-01T17:39:45.327Z,29.30
2023-04-01T17:42:21.583Z,23.30
2023-04-01T17:45:01.740Z,28.30
2023-04-01T17:47:51.590Z,49.80
2023-04-01T17:50:28.597Z,60.73
2023-04-01T17:53:14.179Z,40.20
2023-04-01T17:55:55.770Z,39.95
2023-04-01T17:58:34.637Z,37.90
2023-04-01T18:01:42.258Z,42.63
2023-04-01T18:04:44.686Z,36.17
2023-04-01T18:08:01.318Z,39.30
2023-04-01T18:10:42.926Z,38.00
2023-04-01T18:13:57.715Z,44.15
2023-04-01T18:16:40.410Z,43.30
2023-04-01T18:19:22.957Z,45.50
2023-04-01T18:21:58.662Z,43.58
2023-04-01T18:24:37.966Z,46.45
2023-04-01T18:27:20.607Z,42.10
2023-04-01T18:29:57.051Z,46.17
2023-04-01T18:32:36.536Z,48.15
2023-04-01T18:35:24.870Z,51.00
2023-04-01T18:38:00.052Z,46.58
2023-04-01T18:40:38.729Z,51.17
2023-04-01T18:43:24.852Z,46.80
2023-04-01T18:46:03.820Z,57.70
2023-04-01T18:48:45.881Z,52.63
2023-04-01T18:51:22.182Z,58.72
2023-04-01T18:54:01.044Z,66.55
2023-04-01T18:56:36.250Z,55.13
2023-04-01T18:59:16.982Z,47.50
2023-04-01T19:01:58.577Z,45.00
2023-04-01T19:04:38.074Z,48.65
2023-04-01T19:07:48.023Z,44.05
2023-04-01T19:10:33.701Z,45.63
2023-04-01T19:13:22.225Z,43.83
2023-04-01T19:16:04.990Z,42.67
2023-04-01T19:19:19.257Z,42.83
2023-04-01T19:22:00.971Z,42.28
2023-04-01T19:25:08.328Z,37.97
2023-04-01T19:27:47.314Z,43.97
2023-04-01T19:30:51.319Z,54.58
2023-04-01T19:33:47.963Z,43.90
2023-04-01T19:36:26.391Z,43.30
2023-04-01T19:39:09.057Z,44.27
2023-04-01T19:41:49.902Z,40.28
2023-04-01T19:44:37.735Z,44.20
2023-04-01T19:47:19.518Z,40.33
2023-04-01T19:49:55.169Z,45.05
2023-04-01T19:52:37.056Z,48.20
2023-04-01T19:55:45.497Z,40.58
2023-04-01T19:58:31.106Z,47.63
2023-04-01T20:01:13.385Z,50.10
2023-04-01T20:03:52.143Z,46.42
2023-04-01T20:06:33.990Z,41.25
2023-04-01T20:09:28.078Z,43.10
2023-04-01T20:12:14.622Z,41.58
2023-04-01T20:14:52.548Z,47.83
2023-04-01T20:17:30.942Z,43.08
2023-04-01T20:20:10.195Z,42.30
2023-04-01T20:23:07.154Z,49.45
2023-04-01T20:25:52.949Z,54.10
2023-04-01T20:28:35.618Z,48.85
2023-04-01T20:31:29.698Z,50.93
2023-04-01T20:34:28.531Z,50.90
2023-04-01T20:37:12.434Z,44.42
2023-04-01T20:40:09.832Z,60.28
2023-04-01T20:43:05.666Z,43.80
2023-04-01T20:45:49.661Z,45.22
2023-04-01T20:48:42.737Z,47.92
2023-04-01T20:51:24.369Z,44.97
2023-04-01T20:54:07.903Z,39.50
2023-04-01T20:56:51.769Z,41.65
2023-04-01T20:59:41.450Z,41.70
2023-04-01T21:02:32.670Z,43.30
2023-04-01T21:05:47.731Z,43.70
2023-04-01T21:08:28.474Z,46.08
2023-04-01T21:11:13.303Z,47.92
2023-04-01T21:14:01.300Z,43.90
2023-04-01T21:16:51.163Z,45.97
2023-04-01T21:19:59.738Z,48.90
2023-04-01T21:22:49.718Z,44.72
2023-04-01T21:25:34.620Z,46.40
2023-04-01T21:28:43.328Z,45.40
2023-04-01T21:31:32.600Z,45.25
2023-04-01T21:34:46.684Z,45.30
2023-04-01T21:37:38.559Z,43.13
2023-04-01T21:40:44.783Z,41.27
2023-04-01T21:43:57.862Z,39.38
2023-04-01T21:47:06.079Z,38.00
2023-04-01T21:50:12.275Z,40.80
2023-04-01T21:53:33.195Z,38.05
2023-04-01T21:56:45.890Z,35.57
2023-04-01T21:59:53.683Z,32.25
2023-04-01T22:03:04.258Z,35.30
2023-04-01T22:05:44.292Z,33.85
2023-04-01T22:08:34.094Z,32.35
2023-04-01T22:11:13.778Z,36.70
2023-04-01T22:13:51.646Z,38.75
2023-04-01T22:16:36.523Z,40.20
2023-04-01T22:19:21.385Z,37.83
2023-04-01T22:22:06.696Z,40.63
2023-04-01T22:24:51.376Z,43.70
2023-04-01T22:27:30.746Z,33.90
2023-04-01T22:30:13.098Z,36.72
2023-04-01T22:32:56.167Z,34.50
2023-04-01T22:35:38.797Z,33.70
2023-04-01T22:38:21.447Z,36.03
2023-04-01T22:41:01.662Z,32.58
2023-04-01T22:43:42.689Z,31.90
2023-04-01T22:46:39.034Z,36.83
2023-04-01T22:49:23.871Z,29.63
2023-04-01T22:51:59.308Z,30.58
2023-04-01T22:54:36.381Z,28.40
2023-04-01T22:57:15.182Z,29.42
2023-04-01T22:59:52.678Z,26.85
2023-04-01T23:02:30.422Z,25.55
2023-04-01T23:05:13.411Z,26.17
2023-04-01T23:07:55.904Z,23.65
2023-04-01T23:10:33.394Z,28.00
2023-04-01T23:13:09.675Z,25.40
2023-04-01T23:15:45.741Z,24.65
2023-04-01T23:18:24.738Z,25.83
2023-04-01T23:21:22.230Z,24.20
2023-04-01T23:24:01.387Z,23.77
2023-04-01T23:26:38.709Z,27.80
2023-04-01T23:29:19.813Z,23.75
2023-04-01T23:31:56.785Z,27.40
2023-04-01T23:34:55.966Z,23.70
2023-04-01T23:37:34.403Z,23.77
2023-04-01T23:40:15.901Z,24.70
2023-04-01T23:42:49.515Z,25.85
2023-04-01T23:45:27.534Z,23.17
2023-04-01T23:48:05.321Z,24.20
2023-04-01T23:50:42.277Z,25.15
2023-04-01T23:53:22.036Z,26.55
2023-04-01T23:55:57.778Z,27.35
2023-04-01T23:58:42.732Z,26.15
